sensor_id;sensor_type;location;lat;lon;timestamp;P1;durP1;ratioP1;P2;durP2;ratioP2
9914;SDS011;4996;48.746;9.174;2024-02-26T00:00:33;2.40;;;1.50;;
9914;SDS011;4996;48.746;9.174;2024-02-26T00:02:59;2.83;;;1.50;;
9914;SDS011;4996;48.746;9.174;2024-02-26T00:05:25;2.30;;;1.33;;
9914;SDS011;4996;48.746;9.174;2024-02-26T00:07:51;1.67;;;1.30;;
9914;SDS011;4996;48.746;9.174;2024-02-26T00:10:16;5.77;;;1.77;;
9914;SDS011;4996;48.746;9.174;2024-02-26T00:12:42;2.33;;;1.30;;
9914;SDS011;4996;48.746;9.174;2024-02-26T00:15:08;3.10;;;1.60;;
9914;SDS011;4996;48.746;9.174;2024-02-26T00:17:36;2.03;;;1.50;;
9914;SDS011;4996;48.746;9.174;2024-02-26T00:20:02;3.90;;;1.57;;
9914;SDS011;4996;48.746;9.174;2024-02-26T00:22:29;2.57;;;1.70;;
9914;SDS011;4996;48.746;9.174;2024-02-26T00:24:55;2.60;;;1.20;;
9914;SDS011;4996;48.746;9.174;2024-02-26T00:27:21;6.73;;;1.63;;
9914;SDS011;4996;48.746;9.174;2024-02-26T00:29:46;3.00;;;1.57;;
9914;SDS011;4996;48.746;9.174;2024-02-26T00:32:12;2.43;;;1.30;;
9914;SDS011;4996;48.746;9.174;2024-02-26T00:34:38;2.80;;;1.43;;
9914;SDS011;4996;48.746;9.174;2024-02-26T00:37:03;2.90;;;1.77;;
9914;SDS011;4996;48.746;9.174;2024-02-26T00:39:29;2.90;;;1.70;;
9914;SDS011;4996;48.746;9.174;2024-02-26T00:41:54;2.47;;;1.60;;
9914;SDS011;4996;48.746;9.174;2024-02-26T00:44:20;3.83;;;1.63;;
9914;SDS011;4996;48.746;9.174;2024-02-26T00:46:45;2.20;;;1.27;;
9914;SDS011;4996;48.746;9.174;2024-02-26T00:49:11;1.47;;;1.20;;
9914;SDS011;4996;48.746;9.174;2024-02-26T00:51:36;3.93;;;1.60;;
9914;SDS011;4996;48.746;9.174;2024-02-26T00:54:02;2.93;;;1.77;;
9914;SDS011;4996;48.746;9.174;2024-02-26T00:56:28;4.20;;;1.53;;
9914;SDS011;4996;48.746;9.174;2024-02-26T00:58:53;3.00;;;1.50;;
9914;SDS011;4996;48.746;9.174;2024-02-26T01:01:19;2.97;;;2.03;;
9914;SDS011;4996;48.746;9.174;2024-02-26T01:03:45;1.43;;;1.27;;
9914;SDS011;4996;48.746;9.174;2024-02-26T01:06:10;3.90;;;1.10;;
9914;SDS011;4996;48.746;9.174;2024-02-26T01:08:36;2.43;;;1.60;;
9914;SDS011;4996;48.746;9.174;2024-02-26T01:11:02;2.50;;;1.60;;
9914;SDS011;4996;48.746;9.174;2024-02-26T01:13:28;1.33;;;1.23;;
9914;SDS011;4996;48.746;9.174;2024-02-26T01:15:54;2.13;;;1.43;;
9914;SDS011;4996;48.746;9.174;2024-02-26T01:18:20;1.53;;;1.00;;
9914;SDS011;4996;48.746;9.174;2024-02-26T01:20:45;4.80;;;1.60;;
9914;SDS011;4996;48.746;9.174;2024-02-26T01:23:12;2.40;;;1.33;;
9914;SDS011;4996;48.746;9.174;2024-02-26T01:25:37;1.70;;;1.23;;
9914;SDS011;4996;48.746;9.174;2024-02-26T01:28:04;2.30;;;1.63;;
9914;SDS011;4996;48.746;9.174;2024-02-26T01:30:30;2.20;;;1.57;;
9914;SDS011;4996;48.746;9.174;2024-02-26T01:32:56;2.00;;;1.53;;
9914;SDS011;4996;48.746;9.174;2024-02-26T01:35:21;2.30;;;1.63;;
9914;SDS011;4996;48.746;9.174;2024-02-26T01:37:47;2.10;;;1.47;;
9914;SDS011;4996;48.746;9.174;2024-02-26T01:40:12;1.80;;;1.33;;
9914;SDS011;4996;48.746;9.174;2024-02-26T01:42:42;2.00;;;1.40;;
9914;SDS011;4996;48.746;9.174;2024-02-26T01:45:09;2.63;;;1.60;;
9914;SDS011;4996;48.746;9.174;2024-02-26T01:47:41;2.40;;;2.20;;
9914;SDS011;4996;48.746;9.174;2024-02-26T01:50:07;2.50;;;1.50;;
9914;SDS011;4996;48.746;9.174;2024-02-26T01:52:33;3.20;;;1.80;;
9914;SDS011;4996;48.746;9.174;2024-02-26T01:54:59;1.40;;;1.30;;
9914;SDS011;4996;48.746;9.174;2024-02-26T01:57:26;3.03;;;1.50;;
9914;SDS011;4996;48.746;9.174;2024-02-26T01:59:53;10.13;;;2.20;;
9914;SDS011;4996;48.746;9.174;2024-02-26T02:02:19;2.70;;;1.70;;
9914;SDS011;4996;48.746;9.174;2024-02-26T02:04:45;4.17;;;1.67;;
9914;SDS011;4996;48.746;9.174;2024-02-26T02:07:10;3.90;;;1.67;;
9914;SDS011;4996;48.746;9.174;2024-02-26T02:09:37;2.77;;;1.77;;
9914;SDS011;4996;48.746;9.174;2024-02-26T02:12:03;2.40;;;1.77;;
9914;SDS011;4996;48.746;9.174;2024-02-26T02:14:29;2.03;;;1.50;;
9914;SDS011;4996;48.746;9.174;2024-02-26T02:16:54;4.93;;;2.20;;
9914;SDS011;4996;48.746;9.174;2024-02-26T02:19:20;3.97;;;2.10;;
9914;SDS011;4996;48.746;9.174;2024-02-26T02:21:45;2.20;;;1.30;;
9914;SDS011;4996;48.746;9.174;2024-02-26T02:24:11;1.90;;;1.57;;
9914;SDS011;4996;48.746;9.174;2024-02-26T02:26:36;2.37;;;1.50;;
9914;SDS011;4996;48.746;9.174;2024-02-26T02:29:02;1.50;;;1.40;;
9914;SDS011;4996;48.746;9.174;2024-02-26T02:31:29;2.27;;;1.27;;
9914;SDS011;4996;48.746;9.174;2024-02-26T02:33:55;1.60;;;1.50;;
9914;SDS011;4996;48.746;9.174;2024-02-26T02:36:20;1.80;;;1.20;;
9914;SDS011;4996;48.746;9.174;2024-02-26T02:38:49;1.83;;;1.50;;
9914;SDS011;4996;48.746;9.174;2024-02-26T02:41:16;1.83;;;1.23;;
9914;SDS011;4996;48.746;9.174;2024-02-26T02:43:41;1.40;;;1.20;;
9914;SDS011;4996;48.746;9.174;2024-02-26T02:46:07;2.00;;;1.20;;
9914;SDS011;4996;48.746;9.174;2024-02-26T02:48:32;4.53;;;1.43;;
9914;SDS011;4996;48.746;9.174;2024-02-26T02:50:58;3.00;;;1.70;;
9914;SDS011;4996;48.746;9.174;2024-02-26T02:53:23;2.63;;;1.60;;
9914;SDS011;4996;48.746;9.174;2024-02-26T02:55:49;1.63;;;1.37;;
9914;SDS011;4996;48.746;9.174;2024-02-26T02:58:14;1.20;;;0.90;;
9914;SDS011;4996;48.746;9.174;2024-02-26T03:00:40;2.00;;;1.00;;
9914;SDS011;4996;48.746;9.174;2024-02-26T03:03:06;1.63;;;1.20;;
9914;SDS011;4996;48.746;9.174;2024-02-26T03:05:31;2.23;;;1.40;;
9914;SDS011;4996;48.746;9.174;2024-02-26T03:07:57;1.10;;;0.83;;
9914;SDS011;4996;48.746;9.174;2024-02-26T03:10:22;2.13;;;1.27;;
9914;SDS011;4996;48.746;9.174;2024-02-26T03:12:49;2.07;;;1.40;;
9914;SDS011;4996;48.746;9.174;2024-02-26T03:15:15;2.30;;;1.27;;
9914;SDS011;4996;48.746;9.174;2024-02-26T03:17:40;2.70;;;1.70;;
9914;SDS011;4996;48.746;9.174;2024-02-26T03:20:06;1.73;;;1.40;;
9914;SDS011;4996;48.746;9.174;2024-02-26T03:22:35;1.23;;;0.97;;
9914;SDS011;4996;48.746;9.174;2024-02-26T03:25:01;3.30;;;1.33;;
9914;SDS011;4996;48.746;9.174;2024-02-26T03:27:26;1.10;;;1.00;;
9914;SDS011;4996;48.746;9.174;2024-02-26T03:29:52;1.70;;;1.13;;
9914;SDS011;4996;48.746;9.174;2024-02-26T03:32:17;2.50;;;1.30;;
9914;SDS011;4996;48.746;9.174;2024-02-26T03:34:43;1.07;;;0.77;;
9914;SDS011;4996;48.746;9.174;2024-02-26T03:37:08;1.20;;;1.00;;
9914;SDS011;4996;48.746;9.174;2024-02-26T03:39:35;1.13;;;0.80;;
9914;SDS011;4996;48.746;9.174;2024-02-26T03:42:01;1.00;;;0.70;;
9914;SDS011;4996;48.746;9.174;2024-02-26T03:44:27;1.47;;;0.83;;
9914;SDS011;4996;48.746;9.174;2024-02-26T03:46:52;2.20;;;0.70;;
9914;SDS011;4996;48.746;9.174;2024-02-26T03:49:18;1.70;;;0.90;;
9914;SDS011;4996;48.746;9.174;2024-02-26T03:51:44;1.00;;;0.83;;
9914;SDS011;4996;48.746;9.174;2024-02-26T03:54:09;0.90;;;0.70;;
9914;SDS011;4996;48.746;9.174;2024-02-26T03:56:35;0.70;;;0.70;;
9914;SDS011;4996;48.746;9.174;2024-02-26T03:59:00;1.50;;;0.70;;
9914;SDS011;4996;48.746;9.174;2024-02-26T04:01:27;0.80;;;0.70;;
9914;SDS011;4996;48.746;9.174;2024-02-26T04:03:53;1.03;;;0.67;;
9914;SDS011;4996;48.746;9.174;2024-02-26T04:06:19;1.60;;;0.70;;
9914;SDS011;4996;48.746;9.174;2024-02-26T04:08:46;0.70;;;0.50;;
9914;SDS011;4996;48.746;9.174;2024-02-26T04:11:12;0.67;;;0.43;;
9914;SDS011;4996;48.746;9.174;2024-02-26T04:13:38;2.23;;;0.57;;
9914;SDS011;4996;48.746;9.174;2024-02-26T04:16:04;1.53;;;0.83;;
9914;SDS011;4996;48.746;9.174;2024-02-26T04:18:30;1.20;;;1.03;;
9914;SDS011;4996;48.746;9.174;2024-02-26T04:20:56;1.30;;;1.00;;
9914;SDS011;4996;48.746;9.174;2024-02-26T04:23:22;1.00;;;0.90;;
9914;SDS011;4996;48.746;9.174;2024-02-26T04:25:48;1.70;;;0.70;;
9914;SDS011;4996;48.746;9.174;2024-02-26T04:28:13;2.93;;;1.03;;
9914;SDS011;4996;48.746;9.174;2024-02-26T04:30:39;2.03;;;1.23;;
9914;SDS011;4996;48.746;9.174;2024-02-26T04:33:05;1.83;;;1.13;;
9914;SDS011;4996;48.746;9.174;2024-02-26T04:35:30;1.27;;;1.10;;
9914;SDS011;4996;48.746;9.174;2024-02-26T04:37:56;1.73;;;0.93;;
9914;SDS011;4996;48.746;9.174;2024-02-26T04:40:22;4.00;;;0.90;;
9914;SDS011;4996;48.746;9.174;2024-02-26T04:42:47;2.07;;;0.90;;
9914;SDS011;4996;48.746;9.174;2024-02-26T04:45:13;1.03;;;0.93;;
9914;SDS011;4996;48.746;9.174;2024-02-26T04:47:38;1.37;;;1.10;;
9914;SDS011;4996;48.746;9.174;2024-02-26T04:50:04;1.87;;;1.13;;
9914;SDS011;4996;48.746;9.174;2024-02-26T04:52:30;2.37;;;1.40;;
9914;SDS011;4996;48.746;9.174;2024-02-26T04:54:55;1.87;;;1.10;;
9914;SDS011;4996;48.746;9.174;2024-02-26T04:57:21;1.37;;;1.27;;
9914;SDS011;4996;48.746;9.174;2024-02-26T04:59:47;1.80;;;1.10;;
9914;SDS011;4996;48.746;9.174;2024-02-26T05:02:13;2.50;;;1.40;;
9914;SDS011;4996;48.746;9.174;2024-02-26T05:04:38;2.10;;;1.43;;
9914;SDS011;4996;48.746;9.174;2024-02-26T05:07:04;1.80;;;1.50;;
9914;SDS011;4996;48.746;9.174;2024-02-26T05:09:30;1.70;;;1.60;;
9914;SDS011;4996;48.746;9.174;2024-02-26T05:11:55;1.90;;;1.60;;
9914;SDS011;4996;48.746;9.174;2024-02-26T05:14:21;2.20;;;1.60;;
9914;SDS011;4996;48.746;9.174;2024-02-26T05:16:46;2.17;;;1.87;;
9914;SDS011;4996;48.746;9.174;2024-02-26T05:19:12;3.63;;;2.27;;
9914;SDS011;4996;48.746;9.174;2024-02-26T05:21:38;4.27;;;1.83;;
9914;SDS011;4996;48.746;9.174;2024-02-26T05:24:03;1.87;;;1.77;;
9914;SDS011;4996;48.746;9.174;2024-02-26T05:26:29;3.77;;;2.30;;
9914;SDS011;4996;48.746;9.174;2024-02-26T05:28:55;2.30;;;1.97;;
9914;SDS011;4996;48.746;9.174;2024-02-26T05:31:24;3.27;;;2.23;;
9914;SDS011;4996;48.746;9.174;2024-02-26T05:33:50;2.80;;;2.17;;
9914;SDS011;4996;48.746;9.174;2024-02-26T05:36:19;2.43;;;1.83;;
9914;SDS011;4996;48.746;9.174;2024-02-26T05:38:47;2.60;;;1.57;;
9914;SDS011;4996;48.746;9.174;2024-02-26T05:41:12;2.70;;;1.70;;
9914;SDS011;4996;48.746;9.174;2024-02-26T05:43:40;1.50;;;1.30;;
9914;SDS011;4996;48.746;9.174;2024-02-26T05:46:05;4.70;;;1.63;;
9914;SDS011;4996;48.746;9.174;2024-02-26T05:48:31;2.30;;;2.00;;
9914;SDS011;4996;48.746;9.174;2024-02-26T05:50:57;3.07;;;2.07;;
9914;SDS011;4996;48.746;9.174;2024-02-26T05:53:22;2.90;;;1.77;;
9914;SDS011;4996;48.746;9.174;2024-02-26T05:55:48;2.50;;;1.50;;
9914;SDS011;4996;48.746;9.174;2024-02-26T05:58:13;2.57;;;2.00;;
9914;SDS011;4996;48.746;9.174;2024-02-26T06:00:39;3.60;;;2.10;;
9914;SDS011;4996;48.746;9.174;2024-02-26T06:03:04;2.40;;;1.63;;
9914;SDS011;4996;48.746;9.174;2024-02-26T06:05:30;2.80;;;1.70;;
9914;SDS011;4996;48.746;9.174;2024-02-26T06:07:56;2.30;;;2.17;;
9914;SDS011;4996;48.746;9.174;2024-02-26T06:10:21;2.40;;;2.20;;
9914;SDS011;4996;48.746;9.174;2024-02-26T06:12:47;3.00;;;1.60;;
9914;SDS011;4996;48.746;9.174;2024-02-26T06:15:13;3.80;;;2.90;;
9914;SDS011;4996;48.746;9.174;2024-02-26T06:17:38;2.20;;;2.00;;
9914;SDS011;4996;48.746;9.174;2024-02-26T06:20:04;1.90;;;1.60;;
9914;SDS011;4996;48.746;9.174;2024-02-26T06:22:31;3.27;;;1.43;;
9914;SDS011;4996;48.746;9.174;2024-02-26T06:24:57;2.63;;;1.43;;
9914;SDS011;4996;48.746;9.174;2024-02-26T06:27:23;2.13;;;1.53;;
9914;SDS011;4996;48.746;9.174;2024-02-26T06:29:49;2.30;;;1.60;;
9914;SDS011;4996;48.746;9.174;2024-02-26T06:32:15;3.60;;;1.80;;
9914;SDS011;4996;48.746;9.174;2024-02-26T06:34:40;2.70;;;1.53;;
9914;SDS011;4996;48.746;9.174;2024-02-26T06:37:07;2.30;;;1.80;;
9914;SDS011;4996;48.746;9.174;2024-02-26T06:39:33;1.70;;;1.60;;
9914;SDS011;4996;48.746;9.174;2024-02-26T06:41:58;1.57;;;1.20;;
9914;SDS011;4996;48.746;9.174;2024-02-26T06:44:27;3.50;;;1.60;;
9914;SDS011;4996;48.746;9.174;2024-02-26T06:46:57;3.30;;;1.67;;
9914;SDS011;4996;48.746;9.174;2024-02-26T06:49:24;1.80;;;1.30;;
9914;SDS011;4996;48.746;9.174;2024-02-26T06:51:50;2.70;;;1.80;;
9914;SDS011;4996;48.746;9.174;2024-02-26T06:54:15;1.60;;;1.40;;
9914;SDS011;4996;48.746;9.174;2024-02-26T06:56:41;2.40;;;1.43;;
9914;SDS011;4996;48.746;9.174;2024-02-26T06:59:06;4.93;;;2.00;;
9914;SDS011;4996;48.746;9.174;2024-02-26T07:01:32;2.53;;;2.20;;
9914;SDS011;4996;48.746;9.174;2024-02-26T07:03:57;7.23;;;2.17;;
9914;SDS011;4996;48.746;9.174;2024-02-26T07:06:23;4.83;;;1.67;;
9914;SDS011;4996;48.746;9.174;2024-02-26T07:08:48;1.50;;;1.20;;
9914;SDS011;4996;48.746;9.174;2024-02-26T07:11:14;2.50;;;1.83;;
9914;SDS011;4996;48.746;9.174;2024-02-26T07:13:39;1.60;;;1.50;;
9914;SDS011;4996;48.746;9.174;2024-02-26T07:16:05;4.00;;;1.33;;
9914;SDS011;4996;48.746;9.174;2024-02-26T07:18:31;3.50;;;2.03;;
9914;SDS011;4996;48.746;9.174;2024-02-26T07:20:56;2.73;;;1.83;;
9914;SDS011;4996;48.746;9.174;2024-02-26T07:23:22;2.90;;;1.67;;
9914;SDS011;4996;48.746;9.174;2024-02-26T07:25:47;2.87;;;2.07;;
9914;SDS011;4996;48.746;9.174;2024-02-26T07:28:14;2.80;;;2.23;;
9914;SDS011;4996;48.746;9.174;2024-02-26T07:30:40;5.40;;;2.70;;
9914;SDS011;4996;48.746;9.174;2024-02-26T07:33:05;4.50;;;2.40;;
9914;SDS011;4996;48.746;9.174;2024-02-26T07:35:32;3.50;;;2.13;;
9914;SDS011;4996;48.746;9.174;2024-02-26T07:37:58;5.80;;;2.57;;
9914;SDS011;4996;48.746;9.174;2024-02-26T07:40:24;5.57;;;2.60;;
9914;SDS011;4996;48.746;9.174;2024-02-26T07:42:49;5.40;;;3.00;;
9914;SDS011;4996;48.746;9.174;2024-02-26T07:45:15;3.20;;;2.83;;
9914;SDS011;4996;48.746;9.174;2024-02-26T07:47:42;6.07;;;3.23;;
9914;SDS011;4996;48.746;9.174;2024-02-26T07:50:08;8.13;;;3.33;;
9914;SDS011;4996;48.746;9.174;2024-02-26T07:52:34;6.87;;;3.67;;
9914;SDS011;4996;48.746;9.174;2024-02-26T07:54:59;7.13;;;4.00;;
9914;SDS011;4996;48.746;9.174;2024-02-26T07:57:25;5.10;;;2.80;;
9914;SDS011;4996;48.746;9.174;2024-02-26T07:59:50;6.50;;;3.20;;
9914;SDS011;4996;48.746;9.174;2024-02-26T08:02:16;3.93;;;2.67;;
9914;SDS011;4996;48.746;9.174;2024-02-26T08:04:42;4.20;;;1.90;;
9914;SDS011;4996;48.746;9.174;2024-02-26T08:07:07;2.70;;;2.10;;
9914;SDS011;4996;48.746;9.174;2024-02-26T08:09:33;3.50;;;1.73;;
9914;SDS011;4996;48.746;9.174;2024-02-26T08:11:58;2.23;;;1.60;;
9914;SDS011;4996;48.746;9.174;2024-02-26T08:14:24;2.03;;;1.50;;
9914;SDS011;4996;48.746;9.174;2024-02-26T08:16:49;2.70;;;1.83;;
9914;SDS011;4996;48.746;9.174;2024-02-26T08:19:15;2.50;;;1.30;;
9914;SDS011;4996;48.746;9.174;2024-02-26T08:21:42;1.83;;;1.60;;
9914;SDS011;4996;48.746;9.174;2024-02-26T08:24:08;4.40;;;1.73;;
9914;SDS011;4996;48.746;9.174;2024-02-26T08:26:34;2.80;;;1.77;;
9914;SDS011;4996;48.746;9.174;2024-02-26T08:28:59;3.67;;;2.13;;
9914;SDS011;4996;48.746;9.174;2024-02-26T08:31:25;1.83;;;1.47;;
9914;SDS011;4996;48.746;9.174;2024-02-26T08:33:50;3.03;;;1.87;;
9914;SDS011;4996;48.746;9.174;2024-02-26T08:36:16;3.17;;;1.87;;
9914;SDS011;4996;48.746;9.174;2024-02-26T08:38:41;5.67;;;2.60;;
9914;SDS011;4996;48.746;9.174;2024-02-26T08:41:07;4.50;;;2.13;;
9914;SDS011;4996;48.746;9.174;2024-02-26T08:43:32;4.47;;;2.47;;
9914;SDS011;4996;48.746;9.174;2024-02-26T08:45:58;3.03;;;2.03;;
9914;SDS011;4996;48.746;9.174;2024-02-26T08:48:23;4.50;;;2.13;;
9914;SDS011;4996;48.746;9.174;2024-02-26T08:50:49;4.80;;;2.17;;
9914;SDS011;4996;48.746;9.174;2024-02-26T08:53:14;5.43;;;1.77;;
9914;SDS011;4996;48.746;9.174;2024-02-26T08:55:40;2.07;;;1.87;;
9914;SDS011;4996;48.746;9.174;2024-02-26T08:58:05;2.90;;;2.33;;
9914;SDS011;4996;48.746;9.174;2024-02-26T09:00:31;2.83;;;1.77;;
9914;SDS011;4996;48.746;9.174;2024-02-26T09:02:56;1.93;;;1.40;;
9914;SDS011;4996;48.746;9.174;2024-02-26T09:05:22;1.43;;;1.33;;
9914;SDS011;4996;48.746;9.174;2024-02-26T09:07:47;2.10;;;1.40;;
9914;SDS011;4996;48.746;9.174;2024-02-26T09:10:13;4.60;;;1.80;;
9914;SDS011;4996;48.746;9.174;2024-02-26T09:12:39;4.07;;;1.70;;
9914;SDS011;4996;48.746;9.174;2024-02-26T09:15:05;2.00;;;1.53;;
9914;SDS011;4996;48.746;9.174;2024-02-26T09:17:32;2.00;;;1.33;;
9914;SDS011;4996;48.746;9.174;2024-02-26T09:19:57;1.73;;;1.30;;
9914;SDS011;4996;48.746;9.174;2024-02-26T09:22:23;2.20;;;1.43;;
9914;SDS011;4996;48.746;9.174;2024-02-26T09:24:49;2.70;;;1.63;;
9914;SDS011;4996;48.746;9.174;2024-02-26T09:27:16;2.33;;;1.37;;
9914;SDS011;4996;48.746;9.174;2024-02-26T09:29:42;1.30;;;1.20;;
9914;SDS011;4996;48.746;9.174;2024-02-26T09:32:07;3.17;;;1.67;;
9914;SDS011;4996;48.746;9.174;2024-02-26T09:34:33;1.97;;;1.77;;
9914;SDS011;4996;48.746;9.174;2024-02-26T09:36:59;5.00;;;1.57;;
9914;SDS011;4996;48.746;9.174;2024-02-26T09:39:25;2.90;;;1.43;;
9914;SDS011;4996;48.746;9.174;2024-02-26T09:41:51;2.60;;;1.80;;
9914;SDS011;4996;48.746;9.174;2024-02-26T09:44:20;5.60;;;1.77;;
9914;SDS011;4996;48.746;9.174;2024-02-26T09:46:47;5.50;;;2.50;;
9914;SDS011;4996;48.746;9.174;2024-02-26T09:49:15;7.30;;;1.83;;
9914;SDS011;4996;48.746;9.174;2024-02-26T09:51:41;2.37;;;2.00;;
9914;SDS011;4996;48.746;9.174;2024-02-26T09:54:07;3.67;;;2.10;;
9914;SDS011;4996;48.746;9.174;2024-02-26T09:56:38;3.90;;;1.97;;
9914;SDS011;4996;48.746;9.174;2024-02-26T09:59:06;5.57;;;2.20;;
9914;SDS011;4996;48.746;9.174;2024-02-26T10:01:37;3.70;;;2.30;;
9914;SDS011;4996;48.746;9.174;2024-02-26T10:04:06;2.20;;;1.83;;
9914;SDS011;4996;48.746;9.174;2024-02-26T10:06:34;3.73;;;2.13;;
9914;SDS011;4996;48.746;9.174;2024-02-26T10:09:02;1.33;;;1.00;;
9914;SDS011;4996;48.746;9.174;2024-02-26T10:11:31;2.93;;;0.97;;
9914;SDS011;4996;48.746;9.174;2024-02-26T10:13:57;2.27;;;1.37;;
9914;SDS011;4996;48.746;9.174;2024-02-26T10:16:22;3.97;;;0.90;;
9914;SDS011;4996;48.746;9.174;2024-02-26T10:18:49;1.77;;;1.20;;
9914;SDS011;4996;48.746;9.174;2024-02-26T10:21:16;1.20;;;1.00;;
9914;SDS011;4996;48.746;9.174;2024-02-26T10:23:43;1.93;;;1.10;;
9914;SDS011;4996;48.746;9.174;2024-02-26T10:26:10;4.37;;;1.53;;
9914;SDS011;4996;48.746;9.174;2024-02-26T10:28:37;1.40;;;1.10;;
9914;SDS011;4996;48.746;9.174;2024-02-26T10:31:03;1.80;;;1.40;;
9914;SDS011;4996;48.746;9.174;2024-02-26T10:33:29;1.77;;;1.40;;
9914;SDS011;4996;48.746;9.174;2024-02-26T10:35:54;2.90;;;2.00;;
9914;SDS011;4996;48.746;9.174;2024-02-26T10:38:20;3.33;;;1.97;;
9914;SDS011;4996;48.746;9.174;2024-02-26T10:40:45;3.80;;;2.20;;
9914;SDS011;4996;48.746;9.174;2024-02-26T10:43:13;12.13;;;3.00;;
9914;SDS011;4996;48.746;9.174;2024-02-26T10:45:41;5.63;;;3.10;;
9914;SDS011;4996;48.746;9.174;2024-02-26T10:48:12;3.13;;;2.30;;
9914;SDS011;4996;48.746;9.174;2024-02-26T10:50:39;4.00;;;2.20;;
9914;SDS011;4996;48.746;9.174;2024-02-26T10:53:08;1.93;;;1.73;;
9914;SDS011;4996;48.746;9.174;2024-02-26T10:55:41;2.10;;;1.90;;
9914;SDS011;4996;48.746;9.174;2024-02-26T10:58:08;3.07;;;1.80;;
9914;SDS011;4996;48.746;9.174;2024-02-26T11:00:35;5.80;;;3.23;;
9914;SDS011;4996;48.746;9.174;2024-02-26T11:03:03;6.40;;;2.67;;
9914;SDS011;4996;48.746;9.174;2024-02-26T11:05:30;1.70;;;1.60;;
9914;SDS011;4996;48.746;9.174;2024-02-26T11:07:58;3.10;;;1.40;;
9914;SDS011;4996;48.746;9.174;2024-02-26T11:10:25;2.47;;;1.90;;
9914;SDS011;4996;48.746;9.174;2024-02-26T11:12:54;2.33;;;1.63;;
9914;SDS011;4996;48.746;9.174;2024-02-26T11:15:22;1.77;;;1.57;;
9914;SDS011;4996;48.746;9.174;2024-02-26T11:17:47;3.20;;;1.47;;
9914;SDS011;4996;48.746;9.174;2024-02-26T11:20:13;2.27;;;1.80;;
9914;SDS011;4996;48.746;9.174;2024-02-26T11:22:39;1.80;;;1.40;;
9914;SDS011;4996;48.746;9.174;2024-02-26T11:25:05;3.13;;;1.17;;
9914;SDS011;4996;48.746;9.174;2024-02-26T11:27:34;1.67;;;1.43;;
9914;SDS011;4996;48.746;9.174;2024-02-26T11:30:03;3.23;;;1.33;;
9914;SDS011;4996;48.746;9.174;2024-02-26T11:32:33;1.50;;;1.23;;
9914;SDS011;4996;48.746;9.174;2024-02-26T11:35:00;1.93;;;1.63;;
9914;SDS011;4996;48.746;9.174;2024-02-26T11:37:25;5.90;;;1.47;;
9914;SDS011;4996;48.746;9.174;2024-02-26T11:39:52;2.23;;;1.30;;
9914;SDS011;4996;48.746;9.174;2024-02-26T11:42:17;2.00;;;1.20;;
9914;SDS011;4996;48.746;9.174;2024-02-26T11:44:48;1.93;;;1.10;;
9914;SDS011;4996;48.746;9.174;2024-02-26T11:47:18;1.73;;;1.40;;
9914;SDS011;4996;48.746;9.174;2024-02-26T11:49:45;2.13;;;1.73;;
9914;SDS011;4996;48.746;9.174;2024-02-26T11:52:12;1.70;;;1.47;;
9914;SDS011;4996;48.746;9.174;2024-02-26T11:54:56;1.10;;;1.00;;
9914;SDS011;4996;48.746;9.174;2024-02-26T11:57:26;1.90;;;0.83;;
9914;SDS011;4996;48.746;9.174;2024-02-26T12:00:10;2.60;;;1.10;;
9914;SDS011;4996;48.746;9.174;2024-02-26T12:05:19;1.10;;;1.00;;
9914;SDS011;4996;48.746;9.174;2024-02-26T12:07:56;1.20;;;1.00;;
9914;SDS011;4996;48.746;9.174;2024-02-26T12:10:35;1.17;;;1.03;;
9914;SDS011;4996;48.746;9.174;2024-02-26T12:15:37;3.50;;;1.20;;
9914;SDS011;4996;48.746;9.174;2024-02-26T12:18:05;1.73;;;1.10;;
9914;SDS011;4996;48.746;9.174;2024-02-26T12:20:32;1.57;;;0.93;;
9914;SDS011;4996;48.746;9.174;2024-02-26T12:22:58;2.60;;;1.13;;
9914;SDS011;4996;48.746;9.174;2024-02-26T12:25:25;1.83;;;1.00;;
9914;SDS011;4996;48.746;9.174;2024-02-26T12:27:52;1.67;;;0.80;;
9914;SDS011;4996;48.746;9.174;2024-02-26T12:30:21;2.20;;;0.90;;
9914;SDS011;4996;48.746;9.174;2024-02-26T12:32:51;1.43;;;1.20;;
9914;SDS011;4996;48.746;9.174;2024-02-26T12:35:17;1.20;;;0.90;;
9914;SDS011;4996;48.746;9.174;2024-02-26T12:37:43;1.60;;;1.00;;
9914;SDS011;4996;48.746;9.174;2024-02-26T12:40:09;1.30;;;1.20;;
9914;SDS011;4996;48.746;9.174;2024-02-26T12:42:36;0.87;;;0.70;;
9914;SDS011;4996;48.746;9.174;2024-02-26T12:45:06;1.60;;;1.20;;
9914;SDS011;4996;48.746;9.174;2024-02-26T12:47:37;4.83;;;1.37;;
9914;SDS011;4996;48.746;9.174;2024-02-26T12:50:04;1.30;;;1.07;;
9914;SDS011;4996;48.746;9.174;2024-02-26T12:52:33;3.93;;;1.57;;
9914;SDS011;4996;48.746;9.174;2024-02-26T12:55:01;1.90;;;1.43;;
9914;SDS011;4996;48.746;9.174;2024-02-26T12:57:31;4.90;;;1.33;;
9914;SDS011;4996;48.746;9.174;2024-02-26T12:59:57;1.70;;;1.20;;
9914;SDS011;4996;48.746;9.174;2024-02-26T13:02:24;2.30;;;1.13;;
9914;SDS011;4996;48.746;9.174;2024-02-26T13:04:50;1.90;;;1.33;;
9914;SDS011;4996;48.746;9.174;2024-02-26T13:07:16;3.33;;;1.67;;
9914;SDS011;4996;48.746;9.174;2024-02-26T13:09:42;1.40;;;0.90;;
9914;SDS011;4996;48.746;9.174;2024-02-26T13:12:08;1.50;;;1.00;;
9914;SDS011;4996;48.746;9.174;2024-02-26T13:14:34;1.90;;;1.30;;
9914;SDS011;4996;48.746;9.174;2024-02-26T13:17:00;2.03;;;1.37;;
9914;SDS011;4996;48.746;9.174;2024-02-26T13:19:27;1.77;;;1.30;;
9914;SDS011;4996;48.746;9.174;2024-02-26T13:21:53;3.27;;;1.60;;
9914;SDS011;4996;48.746;9.174;2024-02-26T13:24:19;1.93;;;1.70;;
9914;SDS011;4996;48.746;9.174;2024-02-26T13:26:45;2.43;;;1.33;;
9914;SDS011;4996;48.746;9.174;2024-02-26T13:29:20;4.03;;;0.80;;
9914;SDS011;4996;48.746;9.174;2024-02-26T13:31:46;1.73;;;1.20;;
9914;SDS011;4996;48.746;9.174;2024-02-26T13:34:11;3.00;;;1.20;;
9914;SDS011;4996;48.746;9.174;2024-02-26T13:36:49;3.27;;;1.33;;
9914;SDS011;4996;48.746;9.174;2024-02-26T13:39:21;4.60;;;1.27;;
9914;SDS011;4996;48.746;9.174;2024-02-26T13:41:50;2.60;;;1.37;;
9914;SDS011;4996;48.746;9.174;2024-02-26T13:44:16;1.93;;;1.00;;
9914;SDS011;4996;48.746;9.174;2024-02-26T13:46:42;1.80;;;1.27;;
9914;SDS011;4996;48.746;9.174;2024-02-26T13:49:08;1.90;;;1.57;;
9914;SDS011;4996;48.746;9.174;2024-02-26T13:51:34;2.77;;;1.03;;
9914;SDS011;4996;48.746;9.174;2024-02-26T13:54:01;1.60;;;1.07;;
9914;SDS011;4996;48.746;9.174;2024-02-26T13:56:27;1.43;;;1.30;;
9914;SDS011;4996;48.746;9.174;2024-02-26T13:58:53;1.93;;;1.50;;
9914;SDS011;4996;48.746;9.174;2024-02-26T14:01:18;2.03;;;1.20;;
9914;SDS011;4996;48.746;9.174;2024-02-26T14:03:44;1.10;;;0.80;;
9914;SDS011;4996;48.746;9.174;2024-02-26T14:06:10;3.13;;;1.03;;
9914;SDS011;4996;48.746;9.174;2024-02-26T14:08:36;1.43;;;1.20;;
9914;SDS011;4996;48.746;9.174;2024-02-26T14:11:01;4.87;;;1.10;;
9914;SDS011;4996;48.746;9.174;2024-02-26T14:13:27;1.07;;;0.80;;
9914;SDS011;4996;48.746;9.174;2024-02-26T14:15:53;1.27;;;1.10;;
9914;SDS011;4996;48.746;9.174;2024-02-26T14:18:19;1.40;;;1.03;;
9914;SDS011;4996;48.746;9.174;2024-02-26T14:20:44;1.70;;;0.80;;
9914;SDS011;4996;48.746;9.174;2024-02-26T14:23:10;2.10;;;1.03;;
9914;SDS011;4996;48.746;9.174;2024-02-26T14:25:35;1.37;;;1.10;;
9914;SDS011;4996;48.746;9.174;2024-02-26T14:28:01;4.30;;;0.60;;
9914;SDS011;4996;48.746;9.174;2024-02-26T14:30:27;2.30;;;0.90;;
9914;SDS011;4996;48.746;9.174;2024-02-26T14:32:53;1.63;;;0.70;;
9914;SDS011;4996;48.746;9.174;2024-02-26T14:35:19;2.73;;;0.60;;
9914;SDS011;4996;48.746;9.174;2024-02-26T14:37:44;1.13;;;0.80;;
9914;SDS011;4996;48.746;9.174;2024-02-26T14:40:14;3.87;;;1.00;;
9914;SDS011;4996;48.746;9.174;2024-02-26T14:42:40;1.30;;;0.70;;
9914;SDS011;4996;48.746;9.174;2024-02-26T14:45:06;1.17;;;0.80;;
9914;SDS011;4996;48.746;9.174;2024-02-26T14:47:37;1.33;;;0.80;;
9914;SDS011;4996;48.746;9.174;2024-02-26T14:50:03;1.17;;;0.70;;
9914;SDS011;4996;48.746;9.174;2024-02-26T14:52:29;0.70;;;0.47;;
9914;SDS011;4996;48.746;9.174;2024-02-26T14:54:55;0.90;;;0.67;;
9914;SDS011;4996;48.746;9.174;2024-02-26T14:57:22;0.97;;;0.80;;
9914;SDS011;4996;48.746;9.174;2024-02-26T14:59:49;1.23;;;0.70;;
9914;SDS011;4996;48.746;9.174;2024-02-26T15:02:15;1.87;;;1.03;;
9914;SDS011;4996;48.746;9.174;2024-02-26T15:04:41;2.53;;;1.07;;
9914;SDS011;4996;48.746;9.174;2024-02-26T15:07:06;1.00;;;0.83;;
9914;SDS011;4996;48.746;9.174;2024-02-26T15:09:32;0.73;;;0.70;;
9914;SDS011;4996;48.746;9.174;2024-02-26T15:11:57;1.83;;;0.90;;
9914;SDS011;4996;48.746;9.174;2024-02-26T15:14:23;2.13;;;0.90;;